sensor_id;sensor_type;location;lat;lon;timestamp;pressure;altitude;pressure_sealevel;temperature
75822;BMP180;64454;51.984;9.838;2023-07-30T00:02:07;99455.00;;;17.50
75822;BMP180;64454;51.984;9.838;2023-07-30T00:04:36;99457.00;;;17.10
75822;BMP180;64454;51.984;9.838;2023-07-30T00:07:04;99456.00;;;17.10
75822;BMP180;64454;51.984;9.838;2023-07-30T00:09:32;99457.00;;;16.90
75822;BMP180;64454;51.984;9.838;2023-07-30T00:11:59;99452.00;;;17.20
75822;BMP180;64454;51.984;9.838;2023-07-30T00:14:27;99459.00;;;17.10
75822;BMP180;64454;51.984;9.838;2023-07-30T00:16:54;99456.00;;;17.20
75822;BMP180;64454;51.984;9.838;2023-07-30T00:19:21;99453.00;;;17.20
75822;BMP180;64454;51.984;9.838;2023-07-30T00:21:48;99456.00;;;17.10
75822;BMP180;64454;51.984;9.838;2023-07-30T00:24:18;99455.00;;;17.10
75822;BMP180;64454;51.984;9.838;2023-07-30T00:26:47;99461.00;;;17.00
75822;BMP180;64454;51.984;9.838;2023-07-30T00:29:15;99463.00;;;17.00
75822;BMP180;64454;51.984;9.838;2023-07-30T00:31:44;99460.00;;;17.00
75822;BMP180;64454;51.984;9.838;2023-07-30T00:34:11;99454.00;;;17.10
75822;BMP180;64454;51.984;9.838;2023-07-30T00:36:38;99467.00;;;17.10
75822;BMP180;64454;51.984;9.838;2023-07-30T00:39:05;99465.00;;;16.90
75822;BMP180;64454;51.984;9.838;2023-07-30T00:41:32;99471.00;;;17.10
75822;BMP180;64454;51.984;9.838;2023-07-30T00:44:00;99473.00;;;17.20
75822;BMP180;64454;51.984;9.838;2023-07-30T00:46:28;99468.00;;;17.20
75822;BMP180;64454;51.984;9.838;2023-07-30T00:48:55;99488.00;;;17.30
75822;BMP180;64454;51.984;9.838;2023-07-30T00:51:22;99482.00;;;17.40
75822;BMP180;64454;51.984;9.838;2023-07-30T00:53:50;99494.00;;;17.30
75822;BMP180;64454;51.984;9.838;2023-07-30T00:56:17;99489.00;;;17.20
75822;BMP180;64454;51.984;9.838;2023-07-30T00:58:48;99494.00;;;16.80
75822;BMP180;64454;51.984;9.838;2023-07-30T01:01:17;99493.00;;;17.00
75822;BMP180;64454;51.984;9.838;2023-07-30T01:03:45;99501.00;;;17.30
75822;BMP180;64454;51.984;9.838;2023-07-30T01:06:12;99510.00;;;17.20
75822;BMP180;64454;51.984;9.838;2023-07-30T01:08:39;99506.00;;;17.70
75822;BMP180;64454;51.984;9.838;2023-07-30T01:11:07;99518.00;;;18.20
75822;BMP180;64454;51.984;9.838;2023-07-30T01:13:36;99514.00;;;18.40
75822;BMP180;64454;51.984;9.838;2023-07-30T01:16:04;99518.00;;;18.60
75822;BMP180;64454;51.984;9.838;2023-07-30T01:18:33;99525.00;;;18.70
75822;BMP180;64454;51.984;9.838;2023-07-30T01:21:02;99532.00;;;18.60
75822;BMP180;64454;51.984;9.838;2023-07-30T01:23:29;99529.00;;;18.60
75822;BMP180;64454;51.984;9.838;2023-07-30T01:26:04;99529.00;;;18.50
75822;BMP180;64454;51.984;9.838;2023-07-30T01:28:37;99522.00;;;18.30
75822;BMP180;64454;51.984;9.838;2023-07-30T01:31:08;99520.00;;;18.20
75822;BMP180;64454;51.984;9.838;2023-07-30T01:33:36;99517.00;;;18.40
75822;BMP180;64454;51.984;9.838;2023-07-30T01:36:08;99518.00;;;18.20
75822;BMP180;64454;51.984;9.838;2023-07-30T01:38:38;99523.00;;;18.10
75822;BMP180;64454;51.984;9.838;2023-07-30T01:41:05;99533.00;;;18.00
75822;BMP180;64454;51.984;9.838;2023-07-30T01:43:32;99526.00;;;18.10
75822;BMP180;64454;51.984;9.838;2023-07-30T01:45:59;99522.00;;;18.30
75822;BMP180;64454;51.984;9.838;2023-07-30T01:48:27;99520.00;;;18.20
75822;BMP180;64454;51.984;9.838;2023-07-30T01:50:54;99516.00;;;18.10
75822;BMP180;64454;51.984;9.838;2023-07-30T01:53:22;99508.00;;;18.00
75822;BMP180;64454;51.984;9.838;2023-07-30T01:55:50;99511.00;;;17.90
75822;BMP180;64454;51.984;9.838;2023-07-30T01:58:17;99523.00;;;18.20
75822;BMP180;64454;51.984;9.838;2023-07-30T02:00:45;99522.00;;;17.90
75822;BMP180;64454;51.984;9.838;2023-07-30T02:03:12;99521.00;;;18.00
75822;BMP180;64454;51.984;9.838;2023-07-30T02:05:40;99518.00;;;18.10
75822;BMP180;64454;51.984;9.838;2023-07-30T02:08:07;99533.00;;;18.00
75822;BMP180;64454;51.984;9.838;2023-07-30T02:10:36;99535.00;;;18.10
75822;BMP180;64454;51.984;9.838;2023-07-30T02:13:03;99530.00;;;18.00
75822;BMP180;64454;51.984;9.838;2023-07-30T02:15:30;99535.00;;;18.10
75822;BMP180;64454;51.984;9.838;2023-07-30T02:17:58;99528.00;;;17.90
75822;BMP180;64454;51.984;9.838;2023-07-30T02:20:25;99535.00;;;18.00
75822;BMP180;64454;51.984;9.838;2023-07-30T02:22:52;99534.00;;;17.60
75822;BMP180;64454;51.984;9.838;2023-07-30T02:25:19;99527.00;;;17.50
75822;BMP180;64454;51.984;9.838;2023-07-30T02:27:47;99542.00;;;17.40
75822;BMP180;64454;51.984;9.838;2023-07-30T02:30:15;99538.00;;;17.40
75822;BMP180;64454;51.984;9.838;2023-07-30T02:32:42;99540.00;;;17.40
75822;BMP180;64454;51.984;9.838;2023-07-30T02:35:09;99546.00;;;17.40
75822;BMP180;64454;51.984;9.838;2023-07-30T02:37:36;99541.00;;;17.30
75822;BMP180;64454;51.984;9.838;2023-07-30T02:40:04;99548.00;;;17.30
75822;BMP180;64454;51.984;9.838;2023-07-30T02:42:32;99551.00;;;17.10
75822;BMP180;64454;51.984;9.838;2023-07-30T02:45:00;99547.00;;;17.00
75822;BMP180;64454;51.984;9.838;2023-07-30T02:47:27;99551.00;;;17.00
75822;BMP180;64454;51.984;9.838;2023-07-30T02:49:55;99546.00;;;16.90
75822;BMP180;64454;51.984;9.838;2023-07-30T02:52:23;99556.00;;;16.70
75822;BMP180;64454;51.984;9.838;2023-07-30T02:54:51;99562.00;;;16.80
75822;BMP180;64454;51.984;9.838;2023-07-30T02:57:19;99545.00;;;16.60
75822;BMP180;64454;51.984;9.838;2023-07-30T02:59:46;99552.00;;;16.80
75822;BMP180;64454;51.984;9.838;2023-07-30T03:02:18;99554.00;;;16.70
75822;BMP180;64454;51.984;9.838;2023-07-30T03:04:45;99561.00;;;16.50
75822;BMP180;64454;51.984;9.838;2023-07-30T03:07:13;99554.00;;;16.50
75822;BMP180;64454;51.984;9.838;2023-07-30T03:09:39;99555.00;;;16.40
75822;BMP180;64454;51.984;9.838;2023-07-30T03:12:07;99556.00;;;16.40
75822;BMP180;64454;51.984;9.838;2023-07-30T03:14:36;99556.00;;;16.30
75822;BMP180;64454;51.984;9.838;2023-07-30T03:17:04;99552.00;;;16.20
75822;BMP180;64454;51.984;9.838;2023-07-30T03:19:33;99562.00;;;16.10
75822;BMP180;64454;51.984;9.838;2023-07-30T03:22:02;99560.00;;;16.00
75822;BMP180;64454;51.984;9.838;2023-07-30T03:24:29;99565.00;;;16.10
75822;BMP180;64454;51.984;9.838;2023-07-30T03:26:56;99560.00;;;16.10
75822;BMP180;64454;51.984;9.838;2023-07-30T03:29:23;99566.00;;;16.10
75822;BMP180;64454;51.984;9.838;2023-07-30T03:31:50;99562.00;;;16.00
75822;BMP180;64454;51.984;9.838;2023-07-30T03:34:20;99556.00;;;15.80
75822;BMP180;64454;51.984;9.838;2023-07-30T03:36:48;99567.00;;;16.00
75822;BMP180;64454;51.984;9.838;2023-07-30T03:39:18;99557.00;;;16.00
75822;BMP180;64454;51.984;9.838;2023-07-30T03:41:46;99564.00;;;16.00
75822;BMP180;64454;51.984;9.838;2023-07-30T03:44:14;99569.00;;;15.80
75822;BMP180;64454;51.984;9.838;2023-07-30T03:46:43;99565.00;;;15.80
75822;BMP180;64454;51.984;9.838;2023-07-30T03:49:11;99570.00;;;15.90
75822;BMP180;64454;51.984;9.838;2023-07-30T03:51:38;99572.00;;;15.70
75822;BMP180;64454;51.984;9.838;2023-07-30T03:54:06;99575.00;;;16.00
75822;BMP180;64454;51.984;9.838;2023-07-30T03:56:33;99581.00;;;15.80
75822;BMP180;64454;51.984;9.838;2023-07-30T03:59:00;99581.00;;;15.60
75822;BMP180;64454;51.984;9.838;2023-07-30T04:01:27;99572.00;;;15.40
75822;BMP180;64454;51.984;9.838;2023-07-30T04:03:56;99579.00;;;15.30
75822;BMP180;64454;51.984;9.838;2023-07-30T04:06:23;99573.00;;;15.30
75822;BMP180;64454;51.984;9.838;2023-07-30T04:08:50;99578.00;;;15.40
75822;BMP180;64454;51.984;9.838;2023-07-30T04:11:18;99590.00;;;15.30
75822;BMP180;64454;51.984;9.838;2023-07-30T04:13:45;99597.00;;;15.30
75822;BMP180;64454;51.984;9.838;2023-07-30T04:16:12;99591.00;;;15.50
75822;BMP180;64454;51.984;9.838;2023-07-30T04:18:39;99587.00;;;15.40
75822;BMP180;64454;51.984;9.838;2023-07-30T04:21:06;99583.00;;;15.50
75822;BMP180;64454;51.984;9.838;2023-07-30T04:23:33;99594.00;;;15.40
75822;BMP180;64454;51.984;9.838;2023-07-30T04:26:00;99597.00;;;15.60
75822;BMP180;64454;51.984;9.838;2023-07-30T04:28:28;99595.00;;;15.30
75822;BMP180;64454;51.984;9.838;2023-07-30T04:30:55;99594.00;;;15.20
75822;BMP180;64454;51.984;9.838;2023-07-30T04:33:22;99591.00;;;15.60
75822;BMP180;64454;51.984;9.838;2023-07-30T04:35:49;99591.00;;;15.90
75822;BMP180;64454;51.984;9.838;2023-07-30T04:38:16;99601.00;;;15.80
75822;BMP180;64454;51.984;9.838;2023-07-30T04:40:43;99601.00;;;15.90
75822;BMP180;64454;51.984;9.838;2023-07-30T04:43:10;99600.00;;;15.70
75822;BMP180;64454;51.984;9.838;2023-07-30T04:45:42;99603.00;;;15.80
75822;BMP180;64454;51.984;9.838;2023-07-30T04:48:11;99604.00;;;16.00
75822;BMP180;64454;51.984;9.838;2023-07-30T04:50:38;99606.00;;;15.90
75822;BMP180;64454;51.984;9.838;2023-07-30T04:53:07;99602.00;;;16.20
75822;BMP180;64454;51.984;9.838;2023-07-30T04:55:34;99599.00;;;16.00
75822;BMP180;64454;51.984;9.838;2023-07-30T04:58:01;99601.00;;;16.20
75822;BMP180;64454;51.984;9.838;2023-07-30T05:00:29;99611.00;;;16.20
75822;BMP180;64454;51.984;9.838;2023-07-30T05:02:57;99613.00;;;16.40
75822;BMP180;64454;51.984;9.838;2023-07-30T05:05:24;99617.00;;;16.30
75822;BMP180;64454;51.984;9.838;2023-07-30T05:07:51;99607.00;;;16.40
75822;BMP180;64454;51.984;9.838;2023-07-30T05:10:18;99607.00;;;16.60
75822;BMP180;64454;51.984;9.838;2023-07-30T05:12:45;99607.00;;;16.60
75822;BMP180;64454;51.984;9.838;2023-07-30T05:15:12;99607.00;;;16.70
75822;BMP180;64454;51.984;9.838;2023-07-30T05:17:39;99608.00;;;16.70
75822;BMP180;64454;51.984;9.838;2023-07-30T05:20:09;99608.00;;;17.00
75822;BMP180;64454;51.984;9.838;2023-07-30T05:22:36;99618.00;;;16.90
75822;BMP180;64454;51.984;9.838;2023-07-30T05:25:04;99609.00;;;16.90
75822;BMP180;64454;51.984;9.838;2023-07-30T05:27:31;99610.00;;;16.90
75822;BMP180;64454;51.984;9.838;2023-07-30T05:29:58;99611.00;;;16.90
75822;BMP180;64454;51.984;9.838;2023-07-30T05:32:26;99606.00;;;17.00
75822;BMP180;64454;51.984;9.838;2023-07-30T05:34:53;99601.00;;;17.20
75822;BMP180;64454;51.984;9.838;2023-07-30T05:37:21;99607.00;;;17.30
75822;BMP180;64454;51.984;9.838;2023-07-30T05:39:48;99608.00;;;17.20
75822;BMP180;64454;51.984;9.838;2023-07-30T05:42:15;99612.00;;;17.20
75822;BMP180;64454;51.984;9.838;2023-07-30T05:44:42;99605.00;;;17.40
75822;BMP180;64454;51.984;9.838;2023-07-30T05:47:09;99615.00;;;17.60
75822;BMP180;64454;51.984;9.838;2023-07-30T05:49:36;99608.00;;;17.70
75822;BMP180;64454;51.984;9.838;2023-07-30T05:52:05;99605.00;;;17.90
75822;BMP180;64454;51.984;9.838;2023-07-30T05:54:33;99607.00;;;17.60
75822;BMP180;64454;51.984;9.838;2023-07-30T05:57:00;99613.00;;;18.00
75822;BMP180;64454;51.984;9.838;2023-07-30T05:59:27;99598.00;;;18.10
75822;BMP180;64454;51.984;9.838;2023-07-30T06:01:56;99603.00;;;18.20
75822;BMP180;64454;51.984;9.838;2023-07-30T06:04:23;99601.00;;;18.20
75822;BMP180;64454;51.984;9.838;2023-07-30T06:06:50;99599.00;;;18.20
75822;BMP180;64454;51.984;9.838;2023-07-30T06:09:19;99592.00;;;18.30
75822;BMP180;64454;51.984;9.838;2023-07-30T06:11:48;99602.00;;;18.40
75822;BMP180;64454;51.984;9.838;2023-07-30T06:14:17;99605.00;;;18.60
75822;BMP180;64454;51.984;9.838;2023-07-30T06:16:45;99606.00;;;18.50
75822;BMP180;64454;51.984;9.838;2023-07-30T06:19:13;99600.00;;;18.50
75822;BMP180;64454;51.984;9.838;2023-07-30T06:21:40;99610.00;;;18.50
75822;BMP180;64454;51.984;9.838;2023-07-30T06:24:07;99604.00;;;18.50
75822;BMP180;64454;51.984;9.838;2023-07-30T06:26:34;99612.00;;;18.70
75822;BMP180;64454;51.984;9.838;2023-07-30T06:29:03;99608.00;;;18.40
75822;BMP180;64454;51.984;9.838;2023-07-30T06:31:30;99603.00;;;18.60
75822;BMP180;64454;51.984;9.838;2023-07-30T06:33:56;99604.00;;;18.70
75822;BMP180;64454;51.984;9.838;2023-07-30T06:36:23;99606.00;;;18.90
75822;BMP180;64454;51.984;9.838;2023-07-30T06:38:50;99609.00;;;18.80
75822;BMP180;64454;51.984;9.838;2023-07-30T06:41:17;99608.00;;;18.50
75822;BMP180;64454;51.984;9.838;2023-07-30T06:43:44;99610.00;;;18.50
75822;BMP180;64454;51.984;9.838;2023-07-30T06:46:12;99613.00;;;18.70
75822;BMP180;64454;51.984;9.838;2023-07-30T06:48:39;99610.00;;;18.50
75822;BMP180;64454;51.984;9.838;2023-07-30T06:51:09;99614.00;;;18.80
75822;BMP180;64454;51.984;9.838;2023-07-30T06:53:36;99625.00;;;19.00
75822;BMP180;64454;51.984;9.838;2023-07-30T06:56:03;99626.00;;;19.00
75822;BMP180;64454;51.984;9.838;2023-07-30T06:58:31;99631.00;;;19.10
75822;BMP180;64454;51.984;9.838;2023-07-30T07:00:58;99639.00;;;18.50
75822;BMP180;64454;51.984;9.838;2023-07-30T07:03:26;99643.00;;;18.50
75822;BMP180;64454;51.984;9.838;2023-07-30T07:05:54;99647.00;;;18.70
75822;BMP180;64454;51.984;9.838;2023-07-30T07:08:24;99649.00;;;18.70
75822;BMP180;64454;51.984;9.838;2023-07-30T07:10:53;99647.00;;;18.60
75822;BMP180;64454;51.984;9.838;2023-07-30T07:13:20;99646.00;;;18.80
75822;BMP180;64454;51.984;9.838;2023-07-30T07:15:47;99648.00;;;18.70
75822;BMP180;64454;51.984;9.838;2023-07-30T07:18:14;99660.00;;;18.90
75822;BMP180;64454;51.984;9.838;2023-07-30T07:20:42;99651.00;;;18.80
75822;BMP180;64454;51.984;9.838;2023-07-30T07:23:09;99655.00;;;18.70
75822;BMP180;64454;51.984;9.838;2023-07-30T07:25:36;99656.00;;;18.90
75822;BMP180;64454;51.984;9.838;2023-07-30T07:28:04;99642.00;;;19.10
75822;BMP180;64454;51.984;9.838;2023-07-30T07:30:34;99649.00;;;19.30
75822;BMP180;64454;51.984;9.838;2023-07-30T07:33:01;99641.00;;;19.30
75822;BMP180;64454;51.984;9.838;2023-07-30T07:35:28;99647.00;;;19.30
75822;BMP180;64454;51.984;9.838;2023-07-30T07:37:57;99651.00;;;19.90
75822;BMP180;64454;51.984;9.838;2023-07-30T07:40:24;99646.00;;;20.20
75822;BMP180;64454;51.984;9.838;2023-07-30T07:42:51;99650.00;;;20.00
75822;BMP180;64454;51.984;9.838;2023-07-30T07:45:18;99642.00;;;19.90
75822;BMP180;64454;51.984;9.838;2023-07-30T07:47:45;99654.00;;;20.40
75822;BMP180;64454;51.984;9.838;2023-07-30T07:50:13;99651.00;;;20.60
75822;BMP180;64454;51.984;9.838;2023-07-30T07:52:41;99648.00;;;20.50
75822;BMP180;64454;51.984;9.838;2023-07-30T07:55:10;99647.00;;;20.40
75822;BMP180;64454;51.984;9.838;2023-07-30T07:57:37;99644.00;;;20.10
75822;BMP180;64454;51.984;9.838;2023-07-30T08:00:06;99643.00;;;20.80
75822;BMP180;64454;51.984;9.838;2023-07-30T08:02:33;99644.00;;;21.30
75822;BMP180;64454;51.984;9.838;2023-07-30T08:05:00;99643.00;;;21.40
75822;BMP180;64454;51.984;9.838;2023-07-30T08:07:28;99642.00;;;21.70
75822;BMP180;64454;51.984;9.838;2023-07-30T08:09:55;99642.00;;;22.10
75822;BMP180;64454;51.984;9.838;2023-07-30T08:12:24;99637.00;;;22.30
75822;BMP180;64454;51.984;9.838;2023-07-30T08:14:51;99635.00;;;21.50
75822;BMP180;64454;51.984;9.838;2023-07-30T08:17:18;99643.00;;;22.50
75822;BMP180;64454;51.984;9.838;2023-07-30T08:19:46;99650.00;;;21.20
75822;BMP180;64454;51.984;9.838;2023-07-30T08:22:13;99647.00;;;21.50
75822;BMP180;64454;51.984;9.838;2023-07-30T08:24:40;99647.00;;;21.60
75822;BMP180;64454;51.984;9.838;2023-07-30T08:27:07;99649.00;;;21.50
75822;BMP180;64454;51.984;9.838;2023-07-30T08:29:35;99654.00;;;21.60
75822;BMP180;64454;51.984;9.838;2023-07-30T08:32:03;99644.00;;;21.60
75822;BMP180;64454;51.984;9.838;2023-07-30T08:34:31;99649.00;;;21.50
75822;BMP180;64454;51.984;9.838;2023-07-30T08:36:58;99645.00;;;21.30
75822;BMP180;64454;51.984;9.838;2023-07-30T08:39:25;99639.00;;;21.10
75822;BMP180;64454;51.984;9.838;2023-07-30T08:41:52;99634.00;;;21.10
75822;BMP180;64454;51.984;9.838;2023-07-30T08:44:20;99639.00;;;21.50
75822;BMP180;64454;51.984;9.838;2023-07-30T08:46:49;99638.00;;;21.50
75822;BMP180;64454;51.984;9.838;2023-07-30T08:49:18;99626.00;;;21.10
75822;BMP180;64454;51.984;9.838;2023-07-30T08:51:52;99635.00;;;21.00
75822;BMP180;64454;51.984;9.838;2023-07-30T08:54:22;99637.00;;;21.00
75822;BMP180;64454;51.984;9.838;2023-07-30T08:56:50;99635.00;;;20.70
75822;BMP180;64454;51.984;9.838;2023-07-30T08:59:20;99647.00;;;20.70
75822;BMP180;64454;51.984;9.838;2023-07-30T09:01:52;99637.00;;;20.30
75822;BMP180;64454;51.984;9.838;2023-07-30T09:04:21;99636.00;;;20.30
75822;BMP180;64454;51.984;9.838;2023-07-30T09:06:49;99637.00;;;20.70
75822;BMP180;64454;51.984;9.838;2023-07-30T09:09:18;99626.00;;;20.70
75822;BMP180;64454;51.984;9.838;2023-07-30T09:11:51;99629.00;;;21.00
75822;BMP180;64454;51.984;9.838;2023-07-30T09:14:20;99638.00;;;20.60
75822;BMP180;64454;51.984;9.838;2023-07-30T09:16:56;99637.00;;;21.10
75822;BMP180;64454;51.984;9.838;2023-07-30T09:19:23;99629.00;;;21.20
75822;BMP180;64454;51.984;9.838;2023-07-30T09:21:50;99631.00;;;22.10
75822;BMP180;64454;51.984;9.838;2023-07-30T09:24:21;99628.00;;;22.10
75822;BMP180;64454;51.984;9.838;2023-07-30T09:26:48;99638.00;;;22.60
75822;BMP180;64454;51.984;9.838;2023-07-30T09:29:17;99638.00;;;22.60
75822;BMP180;64454;51.984;9.838;2023-07-30T09:31:53;99647.00;;;22.40
75822;BMP180;64454;51.984;9.838;2023-07-30T09:34:22;99642.00;;;22.10
75822;BMP180;64454;51.984;9.838;2023-07-30T09:36:52;99648.00;;;22.10
75822;BMP180;64454;51.984;9.838;2023-07-30T09:39:22;99658.00;;;21.80
75822;BMP180;64454;51.984;9.838;2023-07-30T09:41:51;99659.00;;;21.50
75822;BMP180;64454;51.984;9.838;2023-07-30T09:44:20;99660.00;;;21.50
75822;BMP180;64454;51.984;9.838;2023-07-30T09:46:50;99659.00;;;21.30
75822;BMP180;64454;51.984;9.838;2023-07-30T09:49:20;99657.00;;;21.50
75822;BMP180;64454;51.984;9.838;2023-07-30T09:51:48;99663.00;;;21.10
75822;BMP180;64454;51.984;9.838;2023-07-30T09:54:18;99664.00;;;21.00
75822;BMP180;64454;51.984;9.838;2023-07-30T09:56:46;99674.00;;;21.40
75822;BMP180;64454;51.984;9.838;2023-07-30T09:59:15;99672.00;;;21.40
75822;BMP180;64454;51.984;9.838;2023-07-30T10:01:46;99690.00;;;21.40
75822;BMP180;64454;51.984;9.838;2023-07-30T10:04:20;99689.00;;;21.40
75822;BMP180;64454;51.984;9.838;2023-07-30T10:06:53;99696.00;;;21.20
75822;BMP180;64454;51.984;9.838;2023-07-30T10:09:23;99692.00;;;21.20
75822;BMP180;64454;51.984;9.838;2023-07-30T10:11:54;99687.00;;;20.80
75822;BMP180;64454;51.984;9.838;2023-07-30T10:14:24;99691.00;;;20.70
75822;BMP180;64454;51.984;9.838;2023-07-30T10:16:54;99689.00;;;20.50
75822;BMP180;64454;51.984;9.838;2023-07-30T10:19:26;99698.00;;;20.20
75822;BMP180;64454;51.984;9.838;2023-07-30T10:21:57;99698.00;;;20.30
75822;BMP180;64454;51.984;9.838;2023-07-30T10:24:26;99711.00;;;20.80
75822;BMP180;64454;51.984;9.838;2023-07-30T10:26:53;99721.00;;;20.70
75822;BMP180;64454;51.984;9.838;2023-07-30T10:29:23;99717.00;;;20.60
75822;BMP180;64454;51.984;9.838;2023-07-30T10:31:54;99728.00;;;20.20
75822;BMP180;64454;51.984;9.838;2023-07-30T10:34:26;99708.00;;;19.80
75822;BMP180;64454;51.984;9.838;2023-07-30T10:36:55;99722.00;;;20.20
75822;BMP180;64454;51.984;9.838;2023-07-30T10:39:27;99716.00;;;19.90
75822;BMP180;64454;51.984;9.838;2023-07-30T10:41:57;99719.00;;;19.90
75822;BMP180;64454;51.984;9.838;2023-07-30T10:44:27;99725.00;;;20.00
75822;BMP180;64454;51.984;9.838;2023-07-30T10:46:56;99738.00;;;20.30
75822;BMP180;64454;51.984;9.838;2023-07-30T10:49:24;99731.00;;;20.30
75822;BMP180;64454;51.984;9.838;2023-07-30T10:51:52;99735.00;;;20.40
75822;BMP180;64454;51.984;9.838;2023-07-30T10:54:21;99745.00;;;20.30
75822;BMP180;64454;51.984;9.838;2023-07-30T10:56:48;99739.00;;;20.30
75822;BMP180;64454;51.984;9.838;2023-07-30T10:59:18;99742.00;;;19.90
75822;BMP180;64454;51.984;9.838;2023-07-30T11:01:46;99736.00;;;19.20
75822;BMP180;64454;51.984;9.838;2023-07-30T11:04:18;99743.00;;;19.20
75822;BMP180;64454;51.984;9.838;2023-07-30T11:06:49;99736.00;;;19.30
75822;BMP180;64454;51.984;9.838;2023-07-30T11:09:22;99730.00;;;19.40
75822;BMP180;64454;51.984;9.838;2023-07-30T11:11:51;99739.00;;;19.70
75822;BMP180;64454;51.984;9.838;2023-07-30T11:14:21;99739.00;;;19.80
75822;BMP180;64454;51.984;9.838;2023-07-30T11:16:50;99744.00;;;20.00
75822;BMP180;64454;51.984;9.838;2023-07-30T11:19:21;99741.00;;;20.10
75822;BMP180;64454;51.984;9.838;2023-07-30T11:21:51;99745.00;;;20.10
75822;BMP180;64454;51.984;9.838;2023-07-30T11:24:20;99744.00;;;20.00
75822;BMP180;64454;51.984;9.838;2023-07-30T11:26:57;99738.00;;;20.20
75822;BMP180;64454;51.984;9.838;2023-07-30T11:29:24;99743.00;;;20.00
75822;BMP180;64454;51.984;9.838;2023-07-30T11:31:56;99738.00;;;20.00
75822;BMP180;64454;51.984;9.838;2023-07-30T11:34:23;99738.00;;;19.90
75822;BMP180;64454;51.984;9.838;2023-07-30T11:36:52;99728.00;;;20.10
75822;BMP180;64454;51.984;9.838;2023-07-30T11:39:22;99726.00;;;19.80
75822;BMP180;64454;51.984;9.838;2023-07-30T11:41:50;99727.00;;;20.00
75822;BMP180;64454;51.984;9.838;2023-07-30T11:44:30;99726.00;;;19.80
75822;BMP180;64454;51.984;9.838;2023-07-30T11:46:58;99726.00;;;20.00
75822;BMP180;64454;51.984;9.838;2023-07-30T11:49:25;99728.00;;;19.40
75822;BMP180;64454;51.984;9.838;2023-07-30T11:52:05;99727.00;;;19.70
75822;BMP180;64454;51.984;9.838;2023-07-30T11:54:32;99716.00;;;19.70
75822;BMP180;64454;51.984;9.838;2023-07-30T11:56:59;99717.00;;;20.50
75822;BMP180;64454;51.984;9.838;2023-07-30T11:59:26;99714.00;;;21.40
75822;BMP180;64454;51.984;9.838;2023-07-30T12:01:53;99712.00;;;21.50
75822;BMP180;64454;51.984;9.838;2023-07-30T12:04:21;99707.00;;;21.40
75822;BMP180;64454;51.984;9.838;2023-07-30T12:06:52;99712.00;;;22.10
75822;BMP180;64454;51.984;9.838;2023-07-30T12:09:22;99716.00;;;23.40
75822;BMP180;64454;51.984;9.838;2023-07-30T12:11:53;99716.00;;;23.40
75822;BMP180;64454;51.984;9.838;2023-07-30T12:14:24;99720.00;;;23.00
75822;BMP180;64454;51.984;9.838;2023-07-30T12:16:55;99731.00;;;22.70
75822;BMP180;64454;51.984;9.838;2023-07-30T12:19:22;99722.00;;;22.50
75822;BMP180;64454;51.984;9.838;2023-07-30T12:21:49;99720.00;;;22.40
75822;BMP180;64454;51.984;9.838;2023-07-30T12:24:20;99717.00;;;22.70
75822;BMP180;64454;51.984;9.838;2023-07-30T12:26:48;99711.00;;;23.00
75822;BMP180;64454;51.984;9.838;2023-07-30T12:29:17;99718.00;;;23.40
75822;BMP180;64454;51.984;9.838;2023-07-30T12:31:45;99708.00;;;23.50
75822;BMP180;64454;51.984;9.838;2023-07-30T12:34:14;99683.00;;;23.50
75822;BMP180;64454;51.984;9.838;2023-07-30T12:36:42;99695.00;;;24.70
75822;BMP180;64454;51.984;9.838;2023-07-30T12:39:10;99663.00;;;25.10
75822;BMP180;64454;51.984;9.838;2023-07-30T12:41:38;99709.00;;;24.70
75822;BMP180;64454;51.984;9.838;2023-07-30T12:44:05;99681.00;;;24.50
75822;BMP180;64454;51.984;9.838;2023-07-30T12:46:32;99683.00;;;25.00
75822;BMP180;64454;51.984;9.838;2023-07-30T12:49:00;99673.00;;;25.90
75822;BMP180;64454;51.984;9.838;2023-07-30T12:51:29;99698.00;;;25.80
75822;BMP180;64454;51.984;9.838;2023-07-30T12:53:56;99695.00;;;25.50
75822;BMP180;64454;51.984;9.838;2023-07-30T12:56:23;99689.00;;;25.20
75822;BMP180;64454;51.984;9.838;2023-07-30T12:58:51;99693.00;;;24.90
75822;BMP180;64454;51.984;9.838;2023-07-30T13:01:19;99677.00;;;25.20
75822;BMP180;64454;51.984;9.838;2023-07-30T13:03:46;99694.00;;;25.30
75822;BMP180;64454;51.984;9.838;2023-07-30T13:06:14;99683.00;;;24.80
75822;BMP180;64454;51.984;9.838;2023-07-30T13:08:41;99686.00;;;24.70
75822;BMP180;64454;51.984;9.838;2023-07-30T13:11:08;99686.00;;;25.20
75822;BMP180;64454;51.984;9.838;2023-07-30T13:13:35;99696.00;;;24.70
75822;BMP180;64454;51.984;9.838;2023-07-30T13:16:04;99692.00;;;24.40
75822;BMP180;64454;51.984;9.838;2023-07-30T13:18:31;99670.00;;;24.20
75822;BMP180;64454;51.984;9.838;2023-07-30T13:20:58;99687.00;;;24.10
75822;BMP180;64454;51.984;9.838;2023-07-30T13:23:25;99690.00;;;24.80
75822;BMP180;64454;51.984;9.838;2023-07-30T13:25:52;99695.00;;;24.80
75822;BMP180;64454;51.984;9.838;2023-07-30T13:28:19;99686.00;;;24.40
75822;BMP180;64454;51.984;9.838;2023-07-30T13:30:46;99692.00;;;24.40
75822;BMP180;64454;51.984;9.838;2023-07-30T13:33:14;99700.00;;;24.40
75822;BMP180;64454;51.984;9.838;2023-07-30T13:35:41;99700.00;;;23.30
75822;BMP180;64454;51.984;9.838;2023-07-30T13:38:08;99695.00;;;23.20
75822;BMP180;64454;51.984;9.838;2023-07-30T13:40:35;99692.00;;;22.50
75822;BMP180;64454;51.984;9.838;2023-07-30T13:43:02;99699.00;;;23.00
75822;BMP180;64454;51.984;9.838;2023-07-30T13:45:29;99701.00;;;23.00
75822;BMP180;64454;51.984;9.838;2023-07-30T13:47:56;99694.00;;;22.80
75822;BMP180;64454;51.984;9.838;2023-07-30T13:50:24;99704.00;;;22.70
75822;BMP180;64454;51.984;9.838;2023-07-30T13:52:51;99711.00;;;22.70
75822;BMP180;64454;51.984;9.838;2023-07-30T13:55:18;99701.00;;;22.80
75822;BMP180;64454;51.984;9.838;2023-07-30T13:57:45;99698.00;;;22.80
75822;BMP180;64454;51.984;9.838;2023-07-30T14:00:13;99698.00;;;22.60
75822;BMP180;64454;51.984;9.838;2023-07-30T14:02:40;99700.00;;;22.10
75822;BMP180;64454;51.984;9.838;2023-07-30T14:05:09;99701.00;;;22.70
75822;BMP180;64454;51.984;9.838;2023-07-30T14:07:37;99695.00;;;22.70
75822;BMP180;64454;51.984;9.838;2023-07-30T14:10:06;99689.00;;;23.30
75822;BMP180;64454;51.984;9.838;2023-07-30T14:12:33;99701.00;;;24.00
75822;BMP180;64454;51.984;9.838;2023-07-30T14:15:01;99689.00;;;24.00